sensor_id;sensor_type;location;lat;lon;timestamp;P1;durP1;ratioP1;P2;durP2;ratioP2
58972;SDS011;44750;52.040;7.472;2024-02-23T05:01:10;1.90;;;1.13;;
58972;SDS011;44750;52.040;7.472;2024-02-23T05:06:10;2.17;;;1.08;;
58972;SDS011;44750;52.040;7.472;2024-02-23T05:11:10;6.65;;;1.67;;
58972;SDS011;44750;52.040;7.472;2024-02-23T05:16:10;2.15;;;1.10;;
58972;SDS011;44750;52.040;7.472;2024-02-23T05:21:11;3.65;;;1.58;;
58972;SDS011;44750;52.040;7.472;2024-02-23T05:26:11;4.68;;;1.38;;
58972;SDS011;44750;52.040;7.472;2024-02-23T05:31:11;6.45;;;2.05;;
58972;SDS011;44750;52.040;7.472;2024-02-23T05:36:11;2.53;;;1.33;;
58972;SDS011;44750;52.040;7.472;2024-02-23T05:41:12;3.17;;;1.75;;
58972;SDS011;44750;52.040;7.472;2024-02-23T05:46:13;6.40;;;2.17;;
58972;SDS011;44750;52.040;7.472;2024-02-23T05:51:13;6.07;;;1.58;;
58972;SDS011;44750;52.040;7.472;2024-02-23T05:56:13;3.22;;;2.20;;
58972;SDS011;44750;52.040;7.472;2024-02-23T06:01:13;7.13;;;2.05;;
58972;SDS011;44750;52.040;7.472;2024-02-23T06:06:13;4.90;;;2.33;;
58972;SDS011;44750;52.040;7.472;2024-02-23T06:11:14;4.30;;;2.17;;
58972;SDS011;44750;52.040;7.472;2024-02-23T06:16:14;5.88;;;2.22;;
58972;SDS011;44750;52.040;7.472;2024-02-23T06:21:14;2.83;;;1.80;;
58972;SDS011;44750;52.040;7.472;2024-02-23T06:26:15;4.95;;;2.03;;
58972;SDS011;44750;52.040;7.472;2024-02-23T06:31:15;6.80;;;2.35;;
58972;SDS011;44750;52.040;7.472;2024-02-23T06:36:15;2.63;;;1.30;;
58972;SDS011;44750;52.040;7.472;2024-02-23T06:41:16;6.32;;;1.70;;
58972;SDS011;44750;52.040;7.472;2024-02-23T06:46:18;8.88;;;1.63;;
58972;SDS011;44750;52.040;7.472;2024-02-23T06:51:18;1.58;;;1.10;;
58972;SDS011;44750;52.040;7.472;2024-02-23T06:56:19;3.20;;;1.35;;
58972;SDS011;44750;52.040;7.472;2024-02-23T07:01:20;2.20;;;1.15;;
58972;SDS011;44750;52.040;7.472;2024-02-23T07:06:20;2.50;;;1.13;;
58972;SDS011;44750;52.040;7.472;2024-02-23T07:11:20;4.85;;;1.60;;
58972;SDS011;44750;52.040;7.472;2024-02-23T07:16:21;3.83;;;1.30;;
58972;SDS011;44750;52.040;7.472;2024-02-23T07:21:21;3.75;;;1.70;;
58972;SDS011;44750;52.040;7.472;2024-02-23T15:17:54;2.13;;;1.10;;
58972;SDS011;44750;52.040;7.472;2024-02-23T15:22:54;7.43;;;1.40;;
58972;SDS011;44750;52.040;7.472;2024-02-23T15:27:54;2.65;;;1.38;;
58972;SDS011;44750;52.040;7.472;2024-02-23T15:32:54;2.15;;;1.10;;
58972;SDS011;44750;52.040;7.472;2024-02-23T15:37:55;2.53;;;1.20;;
58972;SDS011;44750;52.040;7.472;2024-02-23T15:42:55;3.53;;;1.38;;
58972;SDS011;44750;52.040;7.472;2024-02-23T15:47:55;7.22;;;2.95;;
58972;SDS011;44750;52.040;7.472;2024-02-23T15:52:55;14.93;;;8.70;;
58972;SDS011;44750;52.040;7.472;2024-02-23T15:57:56;7.78;;;5.28;;
58972;SDS011;44750;52.040;7.472;2024-02-23T16:02:56;3.90;;;1.23;;
58972;SDS011;44750;52.040;7.472;2024-02-23T16:07:56;5.90;;;1.48;;
58972;SDS011;44750;52.040;7.472;2024-02-23T16:12:56;3.30;;;1.95;;
58972;SDS011;44750;52.040;7.472;2024-02-23T16:17:57;14.90;;;2.17;;
58972;SDS011;44750;52.040;7.472;2024-02-23T16:22:57;2.47;;;1.30;;
58972;SDS011;44750;52.040;7.472;2024-02-23T16:27:58;4.25;;;1.55;;
58972;SDS011;44750;52.040;7.472;2024-02-23T16:32:58;4.60;;;1.50;;
58972;SDS011;44750;52.040;7.472;2024-02-23T16:37:58;2.60;;;1.17;;
58972;SDS011;44750;52.040;7.472;2024-02-23T16:42:58;1.95;;;1.02;;
58972;SDS011;44750;52.040;7.472;2024-02-23T16:47:59;2.60;;;1.30;;
58972;SDS011;44750;52.040;7.472;2024-02-23T16:52:59;7.03;;;1.67;;
58972;SDS011;44750;52.040;7.472;2024-02-23T16:57:59;7.20;;;2.40;;
58972;SDS011;44750;52.040;7.472;2024-02-23T17:03:00;5.38;;;2.38;;
58972;SDS011;44750;52.040;7.472;2024-02-23T17:08:00;13.40;;;4.80;;
58972;SDS011;44750;52.040;7.472;2024-02-23T17:13:00;3.47;;;1.10;;
58972;SDS011;44750;52.040;7.472;2024-02-23T17:18:00;2.40;;;1.00;;
58972;SDS011;44750;52.040;7.472;2024-02-23T17:23:00;2.78;;;1.02;;
58972;SDS011;44750;52.040;7.472;2024-02-23T17:28:01;1.10;;;0.95;;
58972;SDS011;44750;52.040;7.472;2024-02-23T17:33:01;0.80;;;0.80;;
58972;SDS011;44750;52.040;7.472;2024-02-23T17:38:01;2.80;;;1.70;;
58972;SDS011;44750;52.040;7.472;2024-02-23T17:43:02;7.83;;;3.23;;
58972;SDS011;44750;52.040;7.472;2024-02-23T17:48:02;6.53;;;3.40;;
58972;SDS011;44750;52.040;7.472;2024-02-23T17:53:03;1.27;;;1.00;;
58972;SDS011;44750;52.040;7.472;2024-02-23T17:58:03;2.05;;;1.08;;
58972;SDS011;44750;52.040;7.472;2024-02-23T18:03:03;11.75;;;7.72;;
58972;SDS011;44750;52.040;7.472;2024-02-23T18:08:04;3.22;;;2.28;;
58972;SDS011;44750;52.040;7.472;2024-02-23T18:13:04;6.00;;;3.13;;
58972;SDS011;44750;52.040;7.472;2024-02-23T18:18:05;5.40;;;3.55;;
58972;SDS011;44750;52.040;7.472;2024-02-23T18:23:05;1.07;;;0.73;;
58972;SDS011;44750;52.040;7.472;2024-02-23T18:28:05;1.65;;;1.05;;
58972;SDS011;44750;52.040;7.472;2024-02-23T18:33:05;1.70;;;1.00;;
58972;SDS011;44750;52.040;7.472;2024-02-23T18:38:06;1.63;;;1.15;;
58972;SDS011;44750;52.040;7.472;2024-02-23T18:43:06;2.13;;;1.15;;
58972;SDS011;44750;52.040;7.472;2024-02-23T18:48:07;1.92;;;1.35;;
58972;SDS011;44750;52.040;7.472;2024-02-23T18:53:07;1.15;;;0.80;;
58972;SDS011;44750;52.040;7.472;2024-02-23T18:58:07;2.35;;;1.02;;
58972;SDS011;44750;52.040;7.472;2024-02-23T19:03:07;1.95;;;1.33;;
58972;SDS011;44750;52.040;7.472;2024-02-23T19:08:07;3.07;;;1.60;;
58972;SDS011;44750;52.040;7.472;2024-02-23T19:13:08;2.85;;;1.65;;
58972;SDS011;44750;52.040;7.472;2024-02-23T19:18:08;2.20;;;1.90;;
58972;SDS011;44750;52.040;7.472;2024-02-23T19:23:08;3.55;;;1.98;;
58972;SDS011;44750;52.040;7.472;2024-02-23T19:28:08;5.72;;;2.25;;
58972;SDS011;44750;52.040;7.472;2024-02-23T19:33:09;4.32;;;2.65;;
58972;SDS011;44750;52.040;7.472;2024-02-23T19:38:10;6.18;;;3.30;;
58972;SDS011;44750;52.040;7.472;2024-02-23T19:43:10;3.80;;;1.92;;
58972;SDS011;44750;52.040;7.472;2024-02-23T19:48:10;4.43;;;2.80;;
58972;SDS011;44750;52.040;7.472;2024-02-23T19:53:11;3.25;;;2.15;;
58972;SDS011;44750;52.040;7.472;2024-02-23T19:58:11;3.45;;;1.63;;
58972;SDS011;44750;52.040;7.472;2024-02-23T20:03:11;3.85;;;2.00;;
58972;SDS011;44750;52.040;7.472;2024-02-23T20:08:11;5.05;;;1.65;;
58972;SDS011;44750;52.040;7.472;2024-02-23T20:13:12;4.65;;;1.63;;
58972;SDS011;44750;52.040;7.472;2024-02-23T20:18:12;3.63;;;1.83;;
58972;SDS011;44750;52.040;7.472;2024-02-23T20:23:12;2.53;;;1.63;;
58972;SDS011;44750;52.040;7.472;2024-02-23T20:28:12;4.65;;;2.03;;
58972;SDS011;44750;52.040;7.472;2024-02-23T20:33:13;3.90;;;1.42;;
58972;SDS011;44750;52.040;7.472;2024-02-23T20:38:13;2.40;;;1.48;;
58972;SDS011;44750;52.040;7.472;2024-02-23T20:43:13;3.67;;;1.80;;
58972;SDS011;44750;52.040;7.472;2024-02-23T20:48:14;4.80;;;2.28;;
58972;SDS011;44750;52.040;7.472;2024-02-23T20:53:14;8.63;;;2.35;;
58972;SDS011;44750;52.040;7.472;2024-02-23T20:58:14;5.67;;;4.03;;
58972;SDS011;44750;52.040;7.472;2024-02-23T21:03:15;14.30;;;5.40;;
58972;SDS011;44750;52.040;7.472;2024-02-23T21:08:15;29.88;;;10.98;;
58972;SDS011;44750;52.040;7.472;2024-02-23T21:13:16;9.43;;;5.82;;
58972;SDS011;44750;52.040;7.472;2024-02-23T21:18:16;12.25;;;6.72;;
58972;SDS011;44750;52.040;7.472;2024-02-23T21:23:16;14.15;;;7.55;;
58972;SDS011;44750;52.040;7.472;2024-02-23T21:28:16;4.55;;;3.28;;
58972;SDS011;44750;52.040;7.472;2024-02-23T21:33:17;19.50;;;9.68;;
58972;SDS011;44750;52.040;7.472;2024-02-23T21:38:17;23.15;;;11.63;;
58972;SDS011;44750;52.040;7.472;2024-02-23T21:43:17;15.23;;;7.22;;
58972;SDS011;44750;52.040;7.472;2024-02-23T21:48:17;8.63;;;4.63;;
58972;SDS011;44750;52.040;7.472;2024-02-23T21:53:17;4.75;;;1.65;;
